Myrtle Beach, South Carolina
Current Conditions -  °F | °C
As of 8:45 AM on Saturday 25 Oct 2014 (Local Time) from KMYR Reporting Station
Clear Clear  
Wind Chill: 54°   Ceiling: Unl
Heat Index: 54°   Visibility: 10mi
Dew Point: 48°   Wind: 0mph
Humidity: 82%   Direction: NA
Pressure: 30.02"   Gusts: NA
Location:  33.69°N, 78.88°W
Report Text: KMYR 251245Z 00000KT 10SM CLR 12/09 A3002
Loading
Personal Weather Stations






























Interactive Weather Map New forecast layout! Learn more

10-Day Weather Forecast

Advertisements
Track Severe Weather on mobile